Terminal Aerodrome Forecast
Issued by NWS

Home | Current Version | Previous Version | Text Only | Print | Product List | Glossary On
Versions: 1 2 3 4 5 6 7 8 9 10 11 12 13 14 15 16 17 18 19 20 21
000
FTUS43 KICT 262320
TAFHUT
TAF
KHUT 262320Z 2700/2724 VRB05KT P6SM FEW050
     FM271000 VRB04KT 4SM BR FEW150
     FM271400 12006KT P6SM FEW030
     FM272200 13011KT P6SM VCTS SCT050CB BKN120=

USA.gov is the U.S. government's official web portal to all federal, state and local government web resources and services.